createdAt,value
2019-06-27T00:02:28.705Z,12.07
2019-06-27T00:04:57.692Z,11.60
2019-06-27T00:07:26.914Z,12.60
2019-06-27T00:09:56.950Z,11.53
2019-06-27T00:12:26.048Z,11.40
2019-06-27T00:14:54.970Z,11.73
2019-06-27T00:17:33.114Z,12.67
2019-06-27T00:20:02.094Z,12.83
2019-06-27T00:22:43.213Z,12.50
2019-06-27T00:25:15.605Z,13.93
2019-06-27T00:27:44.526Z,12.20
2019-06-27T00:30:13.594Z,11.63
2019-06-27T00:32:48.721Z,12.33
2019-06-27T00:35:18.710Z,12.17
2019-06-27T00:37:47.738Z,12.10
2019-06-27T00:40:16.818Z,12.17
2019-06-27T00:42:45.755Z,12.83
2019-06-27T00:45:14.989Z,14.07
2019-06-27T00:47:43.905Z,12.70
2019-06-27T00:50:13.095Z,13.20
2019-06-27T00:52:42.158Z,12.50
2019-06-27T00:55:11.275Z,14.33
2019-06-27T00:57:40.290Z,13.27
2019-06-27T01:00:10.469Z,12.50
2019-06-27T01:02:39.557Z,13.47
2019-06-27T01:05:09.266Z,12.43
2019-06-27T01:07:38.339Z,12.57
2019-06-27T01:10:07.681Z,12.37
2019-06-27T01:12:36.658Z,12.97
2019-06-27T01:15:05.829Z,14.00
2019-06-27T01:17:36.850Z,13.80
2019-06-27T01:20:13.012Z,14.00
2019-06-27T01:22:42.015Z,13.40
2019-06-27T01:25:12.967Z,14.97
2019-06-27T01:27:49.981Z,14.47
2019-06-27T01:30:29.161Z,13.60
2019-06-27T01:33:04.362Z,14.77
2019-06-27T01:35:33.389Z,15.97
2019-06-27T01:38:17.816Z,16.60
2019-06-27T01:40:46.757Z,14.53
2019-06-27T01:43:18.852Z,14.27
2019-06-27T01:45:51.849Z,13.93
2019-06-27T01:48:20.982Z,15.13
2019-06-27T01:50:49.997Z,14.20
2019-06-27T01:53:18.959Z,13.93
2019-06-27T01:55:48.014Z,15.37
2019-06-27T01:58:20.222Z,15.77
2019-06-27T02:00:49.315Z,16.10
2019-06-27T02:03:24.182Z,16.80
2019-06-27T02:05:53.206Z,15.80
2019-06-27T02:08:29.980Z,17.73
2019-06-27T02:10:58.915Z,17.27
2019-06-27T02:13:27.905Z,16.33
2019-06-27T02:15:57.936Z,16.77
2019-06-27T02:18:26.912Z,17.20
2019-06-27T02:20:55.996Z,16.60
2019-06-27T02:23:26.024Z,18.93
2019-06-27T02:25:55.050Z,18.20
2019-06-27T02:28:25.995Z,17.50
2019-06-27T02:30:55.057Z,18.13
2019-06-27T02:33:24.372Z,17.40
2019-06-27T02:35:53.283Z,18.80
2019-06-27T02:38:25.008Z,16.97
2019-06-27T02:40:58.451Z,17.87
2019-06-27T02:43:25.743Z,18.70
2019-06-27T02:45:54.750Z,16.90
2019-06-27T02:48:33.078Z,16.83
2019-06-27T02:51:04.082Z,18.63
2019-06-27T02:53:33.054Z,17.00
2019-06-27T02:56:02.323Z,17.67
2019-06-27T02:58:34.289Z,18.10
2019-06-27T03:01:09.095Z,19.77
2019-06-27T03:03:41.356Z,17.37
2019-06-27T03:06:11.279Z,19.77
2019-06-27T03:08:41.199Z,17.10
2019-06-27T03:11:17.037Z,18.67
2019-06-27T03:13:47.110Z,19.13
2019-06-27T03:16:16.216Z,17.37
2019-06-27T03:18:45.307Z,18.30
2019-06-27T03:21:15.210Z,18.03
2019-06-27T03:23:45.162Z,19.30
2019-06-27T03:26:14.181Z,17.70
2019-06-27T03:28:52.333Z,17.03
2019-06-27T03:31:16.950Z,18.77
2019-06-27T03:33:45.959Z,19.73
2019-06-27T03:36:14.962Z,17.07
2019-06-27T03:38:43.798Z,17.93
2019-06-27T03:41:12.722Z,18.40
2019-06-27T03:43:41.745Z,18.60
2019-06-27T03:46:10.738Z,18.40
2019-06-27T03:48:39.709Z,19.47
2019-06-27T03:51:08.968Z,18.43
2019-06-27T03:53:37.819Z,19.30
2019-06-27T03:56:06.778Z,20.33
2019-06-27T03:58:35.687Z,19.40
2019-06-27T04:01:04.674Z,19.07
2019-06-27T04:03:33.586Z,18.23
2019-06-27T04:06:02.837Z,19.57
2019-06-27T04:08:31.672Z,18.97
2019-06-27T04:11:02.603Z,18.80
2019-06-27T04:13:34.355Z,19.73
2019-06-27T04:16:03.624Z,17.80
2019-06-27T04:18:32.635Z,18.40
2019-06-27T04:21:12.151Z,19.53
2019-06-27T04:23:41.038Z,18.60
2019-06-27T04:26:15.654Z,18.70
2019-06-27T04:28:44.645Z,18.80
2019-06-27T04:31:13.558Z,17.30
2019-06-27T04:33:48.379Z,17.00
2019-06-27T04:36:17.325Z,16.63
2019-06-27T04:38:46.235Z,16.73
2019-06-27T04:41:16.461Z,16.57
2019-06-27T04:43:45.418Z,19.97
2019-06-27T04:46:14.688Z,18.07
2019-06-27T04:48:43.607Z,16.30
2019-06-27T04:51:12.664Z,16.80
2019-06-27T04:53:46.942Z,16.70
2019-06-27T04:56:29.485Z,16.30
2019-06-27T04:59:04.857Z,19.87
2019-06-27T05:01:40.560Z,17.07
2019-06-27T05:04:09.970Z,17.00
2019-06-27T05:06:42.191Z,17.20
2019-06-27T05:09:11.262Z,15.80
2019-06-27T05:11:40.207Z,16.17
2019-06-27T05:14:11.334Z,16.50
2019-06-27T05:16:41.260Z,17.53
2019-06-27T05:19:10.213Z,16.30
2019-06-27T05:21:40.019Z,17.37
2019-06-27T05:24:12.243Z,18.00
2019-06-27T05:26:44.316Z,16.93
2019-06-27T05:29:25.338Z,16.17
2019-06-27T05:32:01.755Z,17.50
2019-06-27T05:34:32.758Z,16.10
2019-06-27T05:37:04.860Z,16.47
2019-06-27T05:39:42.935Z,16.67
2019-06-27T05:42:22.163Z,16.87
2019-06-27T05:44:59.456Z,16.27
2019-06-27T05:50:46.401Z,18.90
2019-06-27T05:58:43.030Z,18.83
2019-06-27T07:37:04.079Z,20.53
2019-06-27T07:59:08.691Z,21.30
2019-06-27T08:02:11.576Z,23.20
2019-06-27T08:34:27.496Z,20.50
2019-06-27T08:37:27.458Z,21.70
2019-06-27T08:58:59.121Z,19.63
2019-06-27T09:10:39.108Z,18.90
2019-06-27T10:11:55.822Z,18.97
2019-06-27T10:12:37.990Z,18.40
2019-06-27T10:40:38.345Z,19.50
2019-06-27T10:43:07.245Z,20.43
2019-06-27T10:45:36.302Z,19.17
2019-06-27T10:48:05.298Z,18.30
2019-06-27T10:50:34.297Z,20.03
2019-06-27T10:53:06.607Z,20.37
2019-06-27T10:55:35.561Z,19.20
2019-06-27T10:58:05.845Z,19.50
2019-06-27T11:00:34.757Z,18.77
2019-06-27T11:03:14.776Z,19.37
2019-06-27T11:05:35.139Z,19.03
2019-06-27T11:08:04.254Z,19.27
2019-06-27T11:10:34.486Z,19.57
2019-06-27T11:13:11.579Z,18.20
2019-06-27T11:15:50.324Z,17.70
2019-06-27T11:18:27.979Z,18.23
2019-06-27T11:20:59.143Z,18.37
2019-06-27T11:23:30.660Z,19.00
2019-06-27T11:29:01.738Z,18.30
2019-06-27T11:32:32.816Z,17.77
2019-06-27T11:35:34.979Z,17.37
2019-06-27T11:38:04.423Z,16.17
2019-06-27T11:40:35.663Z,16.60
2019-06-27T11:43:06.712Z,16.10
2019-06-27T11:45:35.685Z,16.10
2019-06-27T11:48:06.822Z,15.27
2019-06-27T11:50:58.565Z,15.40
2019-06-27T11:53:27.642Z,16.87
2019-06-27T11:55:56.789Z,16.97
2019-06-27T11:58:31.535Z,15.77
2019-06-27T12:01:01.642Z,15.17
2019-06-27T12:03:45.029Z,16.50
2019-06-27T12:06:29.812Z,15.70
2019-06-27T12:08:59.227Z,15.70
2019-06-27T12:11:29.476Z,15.20
2019-06-27T12:13:58.797Z,15.20
2019-06-27T12:16:28.520Z,13.73
2019-06-27T12:18:57.737Z,15.53
2019-06-27T12:21:28.103Z,18.33
2019-06-27T12:23:57.357Z,14.10
2019-06-27T12:26:26.295Z,12.80
2019-06-27T12:28:55.266Z,13.40
2019-06-27T12:31:25.223Z,12.93
2019-06-27T12:34:06.422Z,13.67
2019-06-27T12:36:24.763Z,14.97
2019-06-27T12:38:53.740Z,13.93
2019-06-27T12:41:22.980Z,13.63
2019-06-27T12:43:56.084Z,12.70
2019-06-27T12:46:26.118Z,11.90
2019-06-27T12:48:55.239Z,12.67
2019-06-27T12:51:24.477Z,12.93
2019-06-27T12:53:55.779Z,12.63
2019-06-27T12:56:26.057Z,12.23
2019-06-27T12:58:55.065Z,12.97
2019-06-27T13:01:27.781Z,12.70
2019-06-27T13:03:56.778Z,12.83
2019-06-27T13:06:25.706Z,13.43
2019-06-27T13:08:54.670Z,12.73
2019-06-27T13:11:23.675Z,12.10
2019-06-27T13:13:52.641Z,13.03
2019-06-27T13:16:22.517Z,13.10
2019-06-27T13:18:53.521Z,12.90
2019-06-27T13:21:24.651Z,12.57
2019-06-27T13:23:53.805Z,12.77
2019-06-27T13:26:23.683Z,12.50
2019-06-27T13:28:52.575Z,13.47
2019-06-27T13:31:22.706Z,12.93
2019-06-27T13:33:51.829Z,14.43
2019-06-27T13:36:21.854Z,13.70
2019-06-27T13:38:51.846Z,13.83
2019-06-27T13:41:21.830Z,12.77
2019-06-27T13:43:50.854Z,13.77
2019-06-27T13:46:19.843Z,13.20
2019-06-27T13:48:49.910Z,12.43
2019-06-27T13:51:20.010Z,14.10
2019-06-27T13:53:48.953Z,13.13
2019-06-27T13:56:17.909Z,13.60
2019-06-27T13:58:46.921Z,13.33
2019-06-27T14:01:17.017Z,13.93
2019-06-27T14:03:49.633Z,15.33
2019-06-27T14:06:17.725Z,15.40
2019-06-27T14:08:46.796Z,15.03
2019-06-27T14:11:15.730Z,15.70
2019-06-27T14:13:45.762Z,15.43
2019-06-27T14:16:14.893Z,15.63
2019-06-27T14:18:44.760Z,17.10
2019-06-27T14:21:14.653Z,16.90
2019-06-27T14:23:43.675Z,18.00
2019-06-27T14:26:12.788Z,16.70
2019-06-27T14:28:41.820Z,17.03
2019-06-27T14:31:10.838Z,17.00
2019-06-27T14:33:39.874Z,18.03
2019-06-27T14:36:10.092Z,17.87
2019-06-27T14:38:40.106Z,18.73
2019-06-27T14:41:09.121Z,18.40
2019-06-27T14:43:38.159Z,19.53
2019-06-27T14:46:08.212Z,18.83
2019-06-27T14:48:38.162Z,18.27
2019-06-27T14:51:07.142Z,19.10
2019-06-27T14:53:36.210Z,19.03
2019-06-27T14:56:05.333Z,18.37
2019-06-27T14:58:34.334Z,18.50
2019-06-27T15:01:08.459Z,17.33
2019-06-27T15:03:36.103Z,17.80
2019-06-27T15:06:12.429Z,16.30
2019-06-27T15:08:41.734Z,15.90
2019-06-27T15:11:11.023Z,16.13
2019-06-27T15:13:40.085Z,16.67
2019-06-27T15:16:12.250Z,18.63
2019-06-27T15:18:41.001Z,17.70
2019-06-27T15:21:10.236Z,16.90
2019-06-27T15:23:39.726Z,15.40
2019-06-27T15:26:09.959Z,16.07
2019-06-27T15:28:41.272Z,17.07
2019-06-27T15:31:10.423Z,15.73
2019-06-27T15:33:40.479Z,16.00
2019-06-27T15:36:09.861Z,16.53
2019-06-27T15:38:40.002Z,16.40
2019-06-27T15:41:11.634Z,15.87
2019-06-27T15:43:40.701Z,15.90
2019-06-27T15:46:10.607Z,16.70
2019-06-27T15:48:40.621Z,16.00
2019-06-27T15:51:09.510Z,16.70
2019-06-27T15:53:38.433Z,16.37
2019-06-27T15:56:07.570Z,16.00
2019-06-27T15:58:36.691Z,17.30
2019-06-27T16:01:05.732Z,16.13
2019-06-27T16:03:34.685Z,16.03
2019-06-27T16:06:09.216Z,14.47
2019-06-27T16:08:34.385Z,14.50
2019-06-27T16:11:03.375Z,15.20
2019-06-27T16:13:32.506Z,14.23
2019-06-27T16:16:01.388Z,13.27
2019-06-27T16:18:31.394Z,14.30
2019-06-27T16:21:02.424Z,13.13
2019-06-27T16:23:32.395Z,12.20
2019-06-27T16:26:01.416Z,12.30
2019-06-27T16:28:32.286Z,12.83
2019-06-27T16:31:01.337Z,12.20
2019-06-27T16:33:30.701Z,10.73
2019-06-27T16:35:59.830Z,10.73
2019-06-27T16:38:28.913Z,9.93
2019-06-27T16:40:57.946Z,10.73
2019-06-27T16:43:26.937Z,10.30
2019-06-27T16:45:56.004Z,10.00
2019-06-27T16:48:27.729Z,9.07
2019-06-27T16:50:56.783Z,8.10
2019-06-27T16:53:27.511Z,8.67
2019-06-27T16:55:57.361Z,7.90
2019-06-27T16:58:26.915Z,8.40
2019-06-27T17:00:57.274Z,9.10
2019-06-27T17:03:27.729Z,7.67
2019-06-27T17:05:57.192Z,7.93
2019-06-27T17:08:26.607Z,7.70
2019-06-27T17:10:58.673Z,8.40
2019-06-27T17:13:26.590Z,7.70
2019-06-27T17:15:55.922Z,8.10
2019-06-27T17:18:24.957Z,7.87
2019-06-27T17:20:53.826Z,7.53
2019-06-27T17:23:23.871Z,7.43
2019-06-27T17:25:53.019Z,7.10
2019-06-27T17:28:22.066Z,7.27
2019-06-27T17:30:53.092Z,7.30
2019-06-27T17:33:22.035Z,6.70
2019-06-27T17:35:51.171Z,7.40
2019-06-27T17:38:20.137Z,6.83
2019-06-27T17:40:49.135Z,6.40
2019-06-27T17:43:18.290Z,6.10
2019-06-27T17:45:47.315Z,5.63
2019-06-27T17:48:17.416Z,5.43
2019-06-27T17:50:46.353Z,6.03
2019-06-27T17:53:15.341Z,5.37
2019-06-27T17:55:44.306Z,5.60
2019-06-27T17:58:13.321Z,5.87
2019-06-27T18:00:42.265Z,5.90
2019-06-27T18:03:11.375Z,5.30
2019-06-27T18:05:40.397Z,5.30
2019-06-27T18:08:09.344Z,5.13
2019-06-27T18:10:38.478Z,4.70
2019-06-27T18:13:07.402Z,4.60
2019-06-27T18:15:37.462Z,4.03
2019-06-27T18:18:07.753Z,4.47
2019-06-27T18:20:36.932Z,4.00
2019-06-27T18:23:06.570Z,4.33
2019-06-27T18:25:35.524Z,4.10
2019-06-27T18:28:04.563Z,4.70
2019-06-27T18:30:33.598Z,4.07
2019-06-27T18:33:02.629Z,4.20
2019-06-27T18:35:31.624Z,4.50
2019-06-27T18:38:01.624Z,4.43
2019-06-27T18:40:30.764Z,3.60
2019-06-27T18:42:59.802Z,4.03
2019-06-27T18:45:29.875Z,3.50
2019-06-27T18:47:58.890Z,4.10
2019-06-27T18:50:28.008Z,3.80
2019-06-27T18:52:56.915Z,4.00
2019-06-27T18:55:25.885Z,3.97
2019-06-27T18:57:55.916Z,3.43
2019-06-27T19:00:24.925Z,3.77
2019-06-27T19:02:53.846Z,3.60
2019-06-27T19:05:22.813Z,4.33
2019-06-27T19:07:51.745Z,3.70
2019-06-27T19:10:21.253Z,3.80
2019-06-27T19:12:50.239Z,3.13
2019-06-27T19:15:19.242Z,3.37
2019-06-27T19:17:48.131Z,2.80
2019-06-27T19:20:31.833Z,2.93
2019-06-27T19:23:25.845Z,3.03
2019-06-27T19:25:57.074Z,2.80
2019-06-27T19:28:26.011Z,2.90
2019-06-27T19:30:55.907Z,2.80
2019-06-27T19:33:24.738Z,2.90
2019-06-27T19:35:53.671Z,2.60
2019-06-27T19:38:23.047Z,2.60
2019-06-27T19:40:51.956Z,2.63
2019-06-27T19:43:27.700Z,2.80
2019-06-27T19:45:52.486Z,2.90
2019-06-27T19:48:21.602Z,2.80
2019-06-27T19:50:50.499Z,2.60
2019-06-27T19:53:19.421Z,2.37
2019-06-27T19:55:49.329Z,2.87
2019-06-27T19:58:18.242Z,2.90
2019-06-27T20:00:47.248Z,2.80
2019-06-27T20:03:17.162Z,2.77
2019-06-27T20:05:46.092Z,2.37
2019-06-27T20:08:19.787Z,2.70
2019-06-27T20:10:45.744Z,2.40
2019-06-27T20:13:29.870Z,2.37
2019-06-27T20:15:50.861Z,2.90
2019-06-27T20:18:21.747Z,2.87
2019-06-27T20:20:50.799Z,2.83
2019-06-27T20:23:19.652Z,2.70
2019-06-27T20:25:48.671Z,2.87
2019-06-27T20:28:17.677Z,2.57
2019-06-27T20:30:46.662Z,2.90
2019-06-27T20:33:15.663Z,2.87
2019-06-27T20:35:44.685Z,2.87
2019-06-27T20:38:13.682Z,2.80
2019-06-27T20:40:42.695Z,2.80
2019-06-27T20:43:11.737Z,2.63
2019-06-27T20:45:40.657Z,2.60
2019-06-27T20:48:09.661Z,2.57
2019-06-27T20:50:38.574Z,3.10
2019-06-27T20:53:07.561Z,3.13
2019-06-27T20:55:36.563Z,2.40
2019-06-27T20:58:05.738Z,3.07
2019-06-27T21:00:34.727Z,2.70
2019-06-27T21:03:03.683Z,2.43
2019-06-27T21:05:33.714Z,2.80
2019-06-27T21:08:02.722Z,2.50
2019-06-27T21:10:31.639Z,2.97
2019-06-27T21:13:00.565Z,2.80
2019-06-27T21:15:29.656Z,2.63
2019-06-27T21:17:59.793Z,2.37
2019-06-27T21:20:28.920Z,2.47
2019-06-27T21:22:58.013Z,2.77
2019-06-27T21:25:27.069Z,2.60
2019-06-27T21:27:56.129Z,2.40
2019-06-27T21:30:25.566Z,2.77
2019-06-27T21:32:54.665Z,2.80
2019-06-27T21:35:23.671Z,2.87
2019-06-27T21:37:52.558Z,3.30
2019-06-27T21:40:22.357Z,2.80
2019-06-27T21:42:51.366Z,2.50
2019-06-27T21:45:20.420Z,2.37
2019-06-27T21:56:09.366Z,2.60
2019-06-27T21:58:38.236Z,2.60
2019-06-27T22:01:07.337Z,2.63
2019-06-27T22:03:36.462Z,2.70
2019-06-27T22:06:06.527Z,2.70
2019-06-27T22:08:35.564Z,2.33
2019-06-27T22:11:04.500Z,2.73
2019-06-27T22:13:33.506Z,2.33
2019-06-27T22:16:02.529Z,2.73
2019-06-27T22:18:31.531Z,2.40
2019-06-27T22:21:00.518Z,2.97
2019-06-27T22:23:29.533Z,2.50
2019-06-27T22:25:58.551Z,2.60
2019-06-27T22:28:27.575Z,2.50
2019-06-27T22:30:56.582Z,2.50
2019-06-27T22:33:25.530Z,2.37
2019-06-27T22:35:54.562Z,2.23
2019-06-27T22:38:42.289Z,2.70
2019-06-27T22:41:29.018Z,2.50
2019-06-27T22:44:15.672Z,2.53
2019-06-27T22:47:02.334Z,2.63
2019-06-27T22:49:30.938Z,3.00
2019-06-27T22:52:17.649Z,2.70
2019-06-27T22:54:47.658Z,2.87
2019-06-27T22:57:16.630Z,2.53
2019-06-27T22:59:45.512Z,2.90
2019-06-27T23:02:15.446Z,3.30
2019-06-27T23:04:44.538Z,3.37
2019-06-27T23:07:13.589Z,3.20
2019-06-27T23:09:56.012Z,2.50
2019-06-27T23:12:13.206Z,3.03
2019-06-27T23:14:42.133Z,2.63
2019-06-27T23:17:11.015Z,2.80
2019-06-27T23:19:40.458Z,2.20
2019-06-27T23:22:09.403Z,2.57
2019-06-27T23:24:38.350Z,2.40
2019-06-27T23:27:07.297Z,3.00
2019-06-27T23:29:36.291Z,2.83
2019-06-27T23:32:05.438Z,2.70
2019-06-27T23:34:35.358Z,2.70
2019-06-27T23:37:04.317Z,2.70
2019-06-27T23:39:33.159Z,2.93
2019-06-27T23:42:03.195Z,2.73
2019-06-27T23:44:32.182Z,2.60
2019-06-27T23:47:01.218Z,2.27
2019-06-27T23:49:30.256Z,2.93
2019-06-27T23:51:59.278Z,2.83
2019-06-27T23:54:28.170Z,2.83
2019-06-27T23:56:57.319Z,2.73
2019-06-27T23:59:26.375Z,2.77
